Bruce Mines, Canada
Current Conditions -  °F | °C
As of 12:15 PM on Friday 19 Dec 2014 (Local Time) from KDRM Reporting Station
Clear Clear  
Wind Chill: 20°   Ceiling: Unl
Heat Index: 20°   Visibility: 10mi
Dew Point: 14°   Wind: 3mph
Humidity: 79%   Direction: 350°N
Pressure: 30.26"   Gusts: NA
Location:  46.3°N, 83.79°W
Report Text: KDRM 191715Z AUTO 35003KT 10SM CLR M07/M10 A3026 RMK AO2 T10671098
Loading
Personal Weather Stations






























Interactive Weather Map New forecast layout! Learn more

10-Day Weather Forecast

Advertisements
Track Severe Weather on mobile